sensor_id;sensor_type;location;lat;lon;timestamp;temperature;humidity
21001;DHT22;10658;50.920;12.238;2023-05-07T00:03:12;10.80;99.90
21001;DHT22;10658;50.920;12.238;2023-05-07T00:07:15;10.70;99.90
21001;DHT22;10658;50.920;12.238;2023-05-07T00:11:15;10.80;99.90
21001;DHT22;10658;50.920;12.238;2023-05-07T00:15:16;10.70;99.90
21001;DHT22;10658;50.920;12.238;2023-05-07T00:19:17;10.70;99.90
21001;DHT22;10658;50.920;12.238;2023-05-07T00:23:18;10.70;99.90
21001;DHT22;10658;50.920;12.238;2023-05-07T00:27:18;10.70;99.90
21001;DHT22;10658;50.920;12.238;2023-05-07T00:31:19;10.60;99.90
21001;DHT22;10658;50.920;12.238;2023-05-07T00:35:20;10.70;99.90
21001;DHT22;10658;50.920;12.238;2023-05-07T00:39:21;10.60;99.90
21001;DHT22;10658;50.920;12.238;2023-05-07T00:43:22;10.60;99.90
21001;DHT22;10658;50.920;12.238;2023-05-07T00:47:22;10.60;99.90
21001;DHT22;10658;50.920;12.238;2023-05-07T00:51:25;10.60;99.90
21001;DHT22;10658;50.920;12.238;2023-05-07T00:55:28;10.60;99.90
21001;DHT22;10658;50.920;12.238;2023-05-07T00:59:30;10.60;99.90
21001;DHT22;10658;50.920;12.238;2023-05-07T01:03:31;10.50;99.90
21001;DHT22;10658;50.920;12.238;2023-05-07T01:07:32;10.60;99.90
21001;DHT22;10658;50.920;12.238;2023-05-07T01:11:34;10.60;99.90
21001;DHT22;10658;50.920;12.238;2023-05-07T01:15:34;10.50;99.90
21001;DHT22;10658;50.920;12.238;2023-05-07T01:19:36;10.60;99.90
21001;DHT22;10658;50.920;12.238;2023-05-07T01:23:37;10.60;99.90
21001;DHT22;10658;50.920;12.238;2023-05-07T01:27:39;10.60;99.90
21001;DHT22;10658;50.920;12.238;2023-05-07T01:31:41;10.60;99.90
21001;DHT22;10658;50.920;12.238;2023-05-07T01:35:46;10.60;99.90
21001;DHT22;10658;50.920;12.238;2023-05-07T01:39:48;10.60;99.90
21001;DHT22;10658;50.920;12.238;2023-05-07T01:43:50;10.70;99.90
21001;DHT22;10658;50.920;12.238;2023-05-07T01:47:53;10.60;99.90
21001;DHT22;10658;50.920;12.238;2023-05-07T01:51:54;10.60;99.90
21001;DHT22;10658;50.920;12.238;2023-05-07T01:55:56;10.60;99.90
21001;DHT22;10658;50.920;12.238;2023-05-07T01:59:58;10.60;99.90
21001;DHT22;10658;50.920;12.238;2023-05-07T02:03:59;10.60;99.90
21001;DHT22;10658;50.920;12.238;2023-05-07T02:08:02;10.50;99.90
21001;DHT22;10658;50.920;12.238;2023-05-07T02:12:05;10.40;99.90
21001;DHT22;10658;50.920;12.238;2023-05-07T02:16:06;10.30;99.90
21001;DHT22;10658;50.920;12.238;2023-05-07T02:20:08;10.40;99.90
21001;DHT22;10658;50.920;12.238;2023-05-07T02:24:14;10.40;99.90
21001;DHT22;10658;50.920;12.238;2023-05-07T02:28:15;10.30;99.90
21001;DHT22;10658;50.920;12.238;2023-05-07T02:32:36;10.20;99.90
21001;DHT22;10658;50.920;12.238;2023-05-07T02:36:37;10.10;99.90
21001;DHT22;10658;50.920;12.238;2023-05-07T02:40:43;10.10;99.90
21001;DHT22;10658;50.920;12.238;2023-05-07T02:44:43;10.00;99.90
21001;DHT22;10658;50.920;12.238;2023-05-07T02:48:45;10.10;99.90
21001;DHT22;10658;50.920;12.238;2023-05-07T02:52:46;10.00;99.90
21001;DHT22;10658;50.920;12.238;2023-05-07T02:56:48;10.00;99.90
21001;DHT22;10658;50.920;12.238;2023-05-07T03:00:49;10.00;99.90
21001;DHT22;10658;50.920;12.238;2023-05-07T03:05:00;10.00;99.90
21001;DHT22;10658;50.920;12.238;2023-05-07T03:09:01;10.00;99.90
21001;DHT22;10658;50.920;12.238;2023-05-07T03:13:02;9.90;99.90
21001;DHT22;10658;50.920;12.238;2023-05-07T03:17:03;9.90;99.90
21001;DHT22;10658;50.920;12.238;2023-05-07T03:21:04;9.90;99.90
21001;DHT22;10658;50.920;12.238;2023-05-07T03:25:06;9.80;99.90
21001;DHT22;10658;50.920;12.238;2023-05-07T03:29:07;9.80;99.90
21001;DHT22;10658;50.920;12.238;2023-05-07T03:33:07;9.90;99.90
21001;DHT22;10658;50.920;12.238;2023-05-07T03:37:09;9.90;99.90
21001;DHT22;10658;50.920;12.238;2023-05-07T03:41:11;9.90;99.90
21001;DHT22;10658;50.920;12.238;2023-05-07T03:45:13;9.80;99.90
21001;DHT22;10658;50.920;12.238;2023-05-07T03:49:18;9.80;99.90
21001;DHT22;10658;50.920;12.238;2023-05-07T03:53:19;9.70;99.90
21001;DHT22;10658;50.920;12.238;2023-05-07T03:57:20;9.70;99.90
21001;DHT22;10658;50.920;12.238;2023-05-07T04:01:22;9.70;99.90
21001;DHT22;10658;50.920;12.238;2023-05-07T04:05:22;9.60;99.90
21001;DHT22;10658;50.920;12.238;2023-05-07T04:09:26;9.60;99.90
21001;DHT22;10658;50.920;12.238;2023-05-07T04:13:29;9.60;99.90
21001;DHT22;10658;50.920;12.238;2023-05-07T04:17:30;9.70;99.90
21001;DHT22;10658;50.920;12.238;2023-05-07T04:21:31;9.70;99.90
21001;DHT22;10658;50.920;12.238;2023-05-07T04:25:33;9.70;99.90
21001;DHT22;10658;50.920;12.238;2023-05-07T04:29:42;9.70;99.90
21001;DHT22;10658;50.920;12.238;2023-05-07T04:33:47;9.70;99.90
21001;DHT22;10658;50.920;12.238;2023-05-07T04:37:49;9.70;99.90
21001;DHT22;10658;50.920;12.238;2023-05-07T04:41:51;9.70;99.90
21001;DHT22;10658;50.920;12.238;2023-05-07T04:45:52;9.70;99.90
21001;DHT22;10658;50.920;12.238;2023-05-07T04:49:54;9.70;99.90
21001;DHT22;10658;50.920;12.238;2023-05-07T04:53:55;9.70;99.90
21001;DHT22;10658;50.920;12.238;2023-05-07T04:57:56;9.70;99.90
21001;DHT22;10658;50.920;12.238;2023-05-07T05:01:58;9.70;99.90
21001;DHT22;10658;50.920;12.238;2023-05-07T05:05:59;9.70;99.90
21001;DHT22;10658;50.920;12.238;2023-05-07T05:10:04;9.70;99.90
21001;DHT22;10658;50.920;12.238;2023-05-07T05:14:09;9.80;99.90
21001;DHT22;10658;50.920;12.238;2023-05-07T05:18:10;9.70;99.90
21001;DHT22;10658;50.920;12.238;2023-05-07T05:22:11;9.80;99.90
21001;DHT22;10658;50.920;12.238;2023-05-07T05:26:12;9.90;99.90
21001;DHT22;10658;50.920;12.238;2023-05-07T05:30:13;9.90;99.90
21001;DHT22;10658;50.920;12.238;2023-05-07T05:34:16;10.00;99.90
21001;DHT22;10658;50.920;12.238;2023-05-07T05:38:18;10.10;99.90
21001;DHT22;10658;50.920;12.238;2023-05-07T05:42:19;10.10;99.90
21001;DHT22;10658;50.920;12.238;2023-05-07T05:46:19;10.20;99.90
21001;DHT22;10658;50.920;12.238;2023-05-07T05:50:22;10.30;99.90
21001;DHT22;10658;50.920;12.238;2023-05-07T05:54:23;10.40;99.90
21001;DHT22;10658;50.920;12.238;2023-05-07T05:58:24;10.40;99.90
21001;DHT22;10658;50.920;12.238;2023-05-07T06:02:31;10.40;99.90
21001;DHT22;10658;50.920;12.238;2023-05-07T06:06:32;10.40;99.90
21001;DHT22;10658;50.920;12.238;2023-05-07T06:10:36;10.50;99.90
21001;DHT22;10658;50.920;12.238;2023-05-07T06:14:39;10.60;99.90
21001;DHT22;10658;50.920;12.238;2023-05-07T06:18:41;10.60;99.90
21001;DHT22;10658;50.920;12.238;2023-05-07T06:22:43;10.60;99.90
21001;DHT22;10658;50.920;12.238;2023-05-07T06:26:45;10.60;99.90
21001;DHT22;10658;50.920;12.238;2023-05-07T06:30:47;10.70;99.90
21001;DHT22;10658;50.920;12.238;2023-05-07T06:34:51;10.80;99.90
21001;DHT22;10658;50.920;12.238;2023-05-07T06:38:53;10.90;99.90
21001;DHT22;10658;50.920;12.238;2023-05-07T06:42:55;11.00;99.90
21001;DHT22;10658;50.920;12.238;2023-05-07T06:47:18;10.90;99.90
21001;DHT22;10658;50.920;12.238;2023-05-07T06:51:24;10.80;99.90
21001;DHT22;10658;50.920;12.238;2023-05-07T06:55:25;10.70;99.90
21001;DHT22;10658;50.920;12.238;2023-05-07T06:59:27;10.60;99.90
21001;DHT22;10658;50.920;12.238;2023-05-07T07:03:29;10.60;99.90
21001;DHT22;10658;50.920;12.238;2023-05-07T07:07:30;10.60;99.90
21001;DHT22;10658;50.920;12.238;2023-05-07T07:11:31;10.70;99.90
21001;DHT22;10658;50.920;12.238;2023-05-07T07:15:33;10.80;99.90
21001;DHT22;10658;50.920;12.238;2023-05-07T07:19:33;10.80;99.90
21001;DHT22;10658;50.920;12.238;2023-05-07T07:23:37;10.80;99.90
21001;DHT22;10658;50.920;12.238;2023-05-07T07:27:37;10.90;99.90
21001;DHT22;10658;50.920;12.238;2023-05-07T07:31:41;10.80;99.90
21001;DHT22;10658;50.920;12.238;2023-05-07T07:35:43;10.80;99.90
21001;DHT22;10658;50.920;12.238;2023-05-07T07:44:34;11.00;99.90
21001;DHT22;10658;50.920;12.238;2023-05-07T07:48:40;11.00;99.90
21001;DHT22;10658;50.920;12.238;2023-05-07T07:52:42;11.10;99.90
21001;DHT22;10658;50.920;12.238;2023-05-07T07:56:44;11.10;99.90
21001;DHT22;10658;50.920;12.238;2023-05-07T08:00:47;11.10;99.90
21001;DHT22;10658;50.920;12.238;2023-05-07T08:04:49;11.30;99.90
21001;DHT22;10658;50.920;12.238;2023-05-07T08:08:50;11.50;99.90
21001;DHT22;10658;50.920;12.238;2023-05-07T08:12:51;11.60;99.90
21001;DHT22;10658;50.920;12.238;2023-05-07T08:16:52;11.70;99.90
21001;DHT22;10658;50.920;12.238;2023-05-07T08:20:53;11.80;99.90
21001;DHT22;10658;50.920;12.238;2023-05-07T08:24:57;11.70;99.90
21001;DHT22;10658;50.920;12.238;2023-05-07T08:28:58;11.60;99.90
21001;DHT22;10658;50.920;12.238;2023-05-07T08:33:00;11.70;99.90
21001;DHT22;10658;50.920;12.238;2023-05-07T08:37:01;11.80;99.90
21001;DHT22;10658;50.920;12.238;2023-05-07T08:41:02;11.80;99.90
21001;DHT22;10658;50.920;12.238;2023-05-07T08:45:09;12.00;99.90
21001;DHT22;10658;50.920;12.238;2023-05-07T08:49:11;12.10;99.90
21001;DHT22;10658;50.920;12.238;2023-05-07T08:53:12;12.20;99.90
21001;DHT22;10658;50.920;12.238;2023-05-07T08:57:14;12.10;99.90
21001;DHT22;10658;50.920;12.238;2023-05-07T09:01:16;12.10;99.90
21001;DHT22;10658;50.920;12.238;2023-05-07T09:05:20;12.00;99.90
21001;DHT22;10658;50.920;12.238;2023-05-07T09:09:39;12.10;99.90
21001;DHT22;10658;50.920;12.238;2023-05-07T09:13:58;12.10;99.90
21001;DHT22;10658;50.920;12.238;2023-05-07T09:18:25;12.30;99.90
21001;DHT22;10658;50.920;12.238;2023-05-07T09:22:26;12.30;99.90
21001;DHT22;10658;50.920;12.238;2023-05-07T09:26:33;12.30;99.90
21001;DHT22;10658;50.920;12.238;2023-05-07T09:30:36;12.50;99.90
21001;DHT22;10658;50.920;12.238;2023-05-07T09:34:41;12.70;99.90
21001;DHT22;10658;50.920;12.238;2023-05-07T09:38:42;13.00;99.90
21001;DHT22;10658;50.920;12.238;2023-05-07T09:42:44;13.30;99.90
21001;DHT22;10658;50.920;12.238;2023-05-07T09:46:47;13.40;99.90
21001;DHT22;10658;50.920;12.238;2023-05-07T09:51:02;13.50;99.90
21001;DHT22;10658;50.920;12.238;2023-05-07T09:55:06;13.10;99.90
21001;DHT22;10658;50.920;12.238;2023-05-07T09:59:08;12.80;99.90
21001;DHT22;10658;50.920;12.238;2023-05-07T10:03:11;12.60;99.90
21001;DHT22;10658;50.920;12.238;2023-05-07T10:07:25;12.60;99.90
21001;DHT22;10658;50.920;12.238;2023-05-07T10:11:31;12.60;99.90
21001;DHT22;10658;50.920;12.238;2023-05-07T10:15:32;12.70;99.90
21001;DHT22;10658;50.920;12.238;2023-05-07T10:19:37;12.70;99.90
21001;DHT22;10658;50.920;12.238;2023-05-07T10:23:40;12.60;99.90
21001;DHT22;10658;50.920;12.238;2023-05-07T10:27:41;12.80;99.90
21001;DHT22;10658;50.920;12.238;2023-05-07T10:35:51;13.00;99.90
21001;DHT22;10658;50.920;12.238;2023-05-07T10:39:56;13.00;99.90
21001;DHT22;10658;50.920;12.238;2023-05-07T10:44:00;13.10;99.90
21001;DHT22;10658;50.920;12.238;2023-05-07T10:52:15;13.30;99.90
21001;DHT22;10658;50.920;12.238;2023-05-07T10:56:24;13.40;99.90
21001;DHT22;10658;50.920;12.238;2023-05-07T11:04:38;13.30;99.90
21001;DHT22;10658;50.920;12.238;2023-05-07T11:08:57;13.20;99.90
21001;DHT22;10658;50.920;12.238;2023-05-07T11:13:15;13.40;99.90
21001;DHT22;10658;50.920;12.238;2023-05-07T11:17:22;13.70;99.90
21001;DHT22;10658;50.920;12.238;2023-05-07T11:21:37;13.90;99.90
21001;DHT22;10658;50.920;12.238;2023-05-07T11:25:48;14.00;99.90
21001;DHT22;10658;50.920;12.238;2023-05-07T11:29:54;14.10;99.90
21001;DHT22;10658;50.920;12.238;2023-05-07T11:33:55;14.00;99.90
21001;DHT22;10658;50.920;12.238;2023-05-07T11:38:00;13.90;99.90
21001;DHT22;10658;50.920;12.238;2023-05-07T11:42:02;13.90;99.90
21001;DHT22;10658;50.920;12.238;2023-05-07T11:46:11;14.00;99.90
21001;DHT22;10658;50.920;12.238;2023-05-07T11:50:12;13.90;99.90
21001;DHT22;10658;50.920;12.238;2023-05-07T11:54:15;13.70;99.90
21001;DHT22;10658;50.920;12.238;2023-05-07T11:58:22;13.80;99.90
21001;DHT22;10658;50.920;12.238;2023-05-07T12:02:23;14.10;99.90
21001;DHT22;10658;50.920;12.238;2023-05-07T12:06:27;14.10;99.90
21001;DHT22;10658;50.920;12.238;2023-05-07T12:10:28;14.00;99.90
21001;DHT22;10658;50.920;12.238;2023-05-07T12:14:28;13.80;99.90
21001;DHT22;10658;50.920;12.238;2023-05-07T12:18:30;13.70;99.90
21001;DHT22;10658;50.920;12.238;2023-05-07T12:22:31;13.60;99.90
21001;DHT22;10658;50.920;12.238;2023-05-07T12:26:31;13.70;99.90
21001;DHT22;10658;50.920;12.238;2023-05-07T12:30:37;13.80;99.90
21001;DHT22;10658;50.920;12.238;2023-05-07T12:34:37;13.80;99.90
21001;DHT22;10658;50.920;12.238;2023-05-07T12:38:40;13.70;99.90
21001;DHT22;10658;50.920;12.238;2023-05-07T12:42:41;13.60;99.90
21001;DHT22;10658;50.920;12.238;2023-05-07T12:46:42;13.60;99.90
21001;DHT22;10658;50.920;12.238;2023-05-07T12:50:43;13.60;99.90
21001;DHT22;10658;50.920;12.238;2023-05-07T12:54:44;13.60;99.90
21001;DHT22;10658;50.920;12.238;2023-05-07T12:58:45;13.50;99.90
21001;DHT22;10658;50.920;12.238;2023-05-07T13:02:49;13.40;99.90
21001;DHT22;10658;50.920;12.238;2023-05-07T13:06:50;13.50;99.90
21001;DHT22;10658;50.920;12.238;2023-05-07T13:10:51;13.50;99.90
21001;DHT22;10658;50.920;12.238;2023-05-07T13:14:51;13.60;99.90
21001;DHT22;10658;50.920;12.238;2023-05-07T13:18:52;13.50;99.90
21001;DHT22;10658;50.920;12.238;2023-05-07T13:22:54;13.50;99.90
21001;DHT22;10658;50.920;12.238;2023-05-07T13:26:54;13.50;99.90
21001;DHT22;10658;50.920;12.238;2023-05-07T13:30:55;13.60;99.90
21001;DHT22;10658;50.920;12.238;2023-05-07T13:34:56;13.80;99.90
21001;DHT22;10658;50.920;12.238;2023-05-07T13:38:57;14.00;99.90
21001;DHT22;10658;50.920;12.238;2023-05-07T13:43:00;14.30;99.90
21001;DHT22;10658;50.920;12.238;2023-05-07T13:47:03;14.50;99.90
21001;DHT22;10658;50.920;12.238;2023-05-07T13:51:04;14.80;99.90
21001;DHT22;10658;50.920;12.238;2023-05-07T13:55:06;15.40;99.90
21001;DHT22;10658;50.920;12.238;2023-05-07T13:59:06;15.70;99.90
21001;DHT22;10658;50.920;12.238;2023-05-07T14:03:07;15.80;99.90
21001;DHT22;10658;50.920;12.238;2023-05-07T14:07:08;15.70;99.90
21001;DHT22;10658;50.920;12.238;2023-05-07T14:11:09;15.60;99.90
21001;DHT22;10658;50.920;12.238;2023-05-07T14:15:09;15.50;99.90
21001;DHT22;10658;50.920;12.238;2023-05-07T14:19:11;15.70;99.90
21001;DHT22;10658;50.920;12.238;2023-05-07T14:23:12;16.10;99.90
21001;DHT22;10658;50.920;12.238;2023-05-07T14:27:13;16.10;99.90
21001;DHT22;10658;50.920;12.238;2023-05-07T14:31:14;15.80;99.90
21001;DHT22;10658;50.920;12.238;2023-05-07T14:35:15;16.00;99.90
21001;DHT22;10658;50.920;12.238;2023-05-07T14:39:15;16.10;99.90
21001;DHT22;10658;50.920;12.238;2023-05-07T14:43:16;16.30;99.90
21001;DHT22;10658;50.920;12.238;2023-05-07T14:47:17;16.40;99.90
21001;DHT22;10658;50.920;12.238;2023-05-07T14:51:17;16.40;99.90
21001;DHT22;10658;50.920;12.238;2023-05-07T14:55:18;16.50;99.90
21001;DHT22;10658;50.920;12.238;2023-05-07T14:59:19;16.40;99.90
21001;DHT22;10658;50.920;12.238;2023-05-07T15:03:21;16.30;99.90
21001;DHT22;10658;50.920;12.238;2023-05-07T15:07:22;16.40;99.90
21001;DHT22;10658;50.920;12.238;2023-05-07T15:11:23;16.50;99.90
21001;DHT22;10658;50.920;12.238;2023-05-07T15:15:23;16.50;99.90
21001;DHT22;10658;50.920;12.238;2023-05-07T15:19:25;16.40;99.90
21001;DHT22;10658;50.920;12.238;2023-05-07T15:23:29;16.60;99.90
21001;DHT22;10658;50.920;12.238;2023-05-07T15:27:30;16.70;99.90
21001;DHT22;10658;50.920;12.238;2023-05-07T15:31:31;16.70;99.90
21001;DHT22;10658;50.920;12.238;2023-05-07T15:35:32;16.30;99.90
21001;DHT22;10658;50.920;12.238;2023-05-07T15:39:33;15.90;99.90
21001;DHT22;10658;50.920;12.238;2023-05-07T15:43:36;16.10;99.90
21001;DHT22;10658;50.920;12.238;2023-05-07T15:47:43;16.10;99.90
21001;DHT22;10658;50.920;12.238;2023-05-07T15:51:45;16.30;99.90
21001;DHT22;10658;50.920;12.238;2023-05-07T15:55:46;16.30;99.90
21001;DHT22;10658;50.920;12.238;2023-05-07T15:59:47;16.30;99.90
21001;DHT22;10658;50.920;12.238;2023-05-07T16:03:48;16.40;99.90
21001;DHT22;10658;50.920;12.238;2023-05-07T16:07:49;16.20;99.90
21001;DHT22;10658;50.920;12.238;2023-05-07T16:11:50;16.10;99.90
21001;DHT22;10658;50.920;12.238;2023-05-07T16:15:57;16.10;99.90
21001;DHT22;10658;50.920;12.238;2023-05-07T16:19:58;16.20;99.90
21001;DHT22;10658;50.920;12.238;2023-05-07T16:23:59;16.20;99.90
21001;DHT22;10658;50.920;12.238;2023-05-07T16:28:00;16.20;99.90
21001;DHT22;10658;50.920;12.238;2023-05-07T16:32:01;16.20;99.90
21001;DHT22;10658;50.920;12.238;2023-05-07T16:36:01;16.00;99.90
21001;DHT22;10658;50.920;12.238;2023-05-07T16:40:03;16.10;99.90
21001;DHT22;10658;50.920;12.238;2023-05-07T16:44:07;16.00;99.90
21001;DHT22;10658;50.920;12.238;2023-05-07T16:48:08;15.60;99.90
21001;DHT22;10658;50.920;12.238;2023-05-07T16:52:09;14.80;99.90
21001;DHT22;10658;50.920;12.238;2023-05-07T16:56:10;14.20;99.90
21001;DHT22;10658;50.920;12.238;2023-05-07T17:00:11;13.90;99.90
21001;DHT22;10658;50.920;12.238;2023-05-07T17:04:12;13.60;99.90
21001;DHT22;10658;50.920;12.238;2023-05-07T17:08:14;13.40;99.90
21001;DHT22;10658;50.920;12.238;2023-05-07T17:12:14;13.30;99.90
21001;DHT22;10658;50.920;12.238;2023-05-07T17:16:15;13.20;99.90
21001;DHT22;10658;50.920;12.238;2023-05-07T17:20:16;13.10;99.90
21001;DHT22;10658;50.920;12.238;2023-05-07T17:24:17;13.00;99.90
21001;DHT22;10658;50.920;12.238;2023-05-07T17:28:18;13.00;99.90
21001;DHT22;10658;50.920;12.238;2023-05-07T17:32:18;13.00;99.90
21001;DHT22;10658;50.920;12.238;2023-05-07T17:36:19;12.90;99.90
21001;DHT22;10658;50.920;12.238;2023-05-07T17:40:20;12.80;99.90
21001;DHT22;10658;50.920;12.238;2023-05-07T17:44:26;12.70;99.90
21001;DHT22;10658;50.920;12.238;2023-05-07T17:48:26;12.60;99.90
21001;DHT22;10658;50.920;12.238;2023-05-07T17:52:27;12.50;99.90
21001;DHT22;10658;50.920;12.238;2023-05-07T17:56:28;12.40;99.90
21001;DHT22;10658;50.920;12.238;2023-05-07T18:00:28;12.20;99.90
21001;DHT22;10658;50.920;12.238;2023-05-07T18:04:29;12.10;99.90
21001;DHT22;10658;50.920;12.238;2023-05-07T18:08:30;12.00;99.90
21001;DHT22;10658;50.920;12.238;2023-05-07T18:12:31;11.90;99.90
21001;DHT22;10658;50.920;12.238;2023-05-07T18:16:32;11.80;99.90
21001;DHT22;10658;50.920;12.238;2023-05-07T18:20:33;11.70;99.90
21001;DHT22;10658;50.920;12.238;2023-05-07T18:24:34;11.70;99.90
21001;DHT22;10658;50.920;12.238;2023-05-07T18:28:34;11.50;99.90
21001;DHT22;10658;50.920;12.238;2023-05-07T18:32:35;11.50;99.90
21001;DHT22;10658;50.920;12.238;2023-05-07T18:36:36;11.30;99.90
21001;DHT22;10658;50.920;12.238;2023-05-07T18:40:37;11.30;99.90
21001;DHT22;10658;50.920;12.238;2023-05-07T18:44:43;11.10;99.90
21001;DHT22;10658;50.920;12.238;2023-05-07T18:48:44;11.00;99.90
21001;DHT22;10658;50.920;12.238;2023-05-07T18:52:45;10.90;99.90
21001;DHT22;10658;50.920;12.238;2023-05-07T18:56:45;10.80;99.90
21001;DHT22;10658;50.920;12.238;2023-05-07T19:00:47;10.70;99.90
21001;DHT22;10658;50.920;12.238;2023-05-07T19:04:48;10.60;99.90
21001;DHT22;10658;50.920;12.238;2023-05-07T19:08:48;10.50;99.90
21001;DHT22;10658;50.920;12.238;2023-05-07T19:12:50;10.40;99.90
21001;DHT22;10658;50.920;12.238;2023-05-07T19:16:55;10.30;99.90
21001;DHT22;10658;50.920;12.238;2023-05-07T19:20:56;10.20;99.90
21001;DHT22;10658;50.920;12.238;2023-05-07T19:24:56;10.20;99.90
21001;DHT22;10658;50.920;12.238;2023-05-07T19:28:57;10.10;99.90
21001;DHT22;10658;50.920;12.238;2023-05-07T19:32:58;10.00;99.90
21001;DHT22;10658;50.920;12.238;2023-05-07T19:37:00;10.00;99.90
21001;DHT22;10658;50.920;12.238;2023-05-07T19:41:01;9.90;99.90
21001;DHT22;10658;50.920;12.238;2023-05-07T19:45:03;9.80;99.90
21001;DHT22;10658;50.920;12.238;2023-05-07T19:49:04;9.70;99.90
21001;DHT22;10658;50.920;12.238;2023-05-07T19:53:05;9.70;99.90
21001;DHT22;10658;50.920;12.238;2023-05-07T19:57:05;9.60;99.90
21001;DHT22;10658;50.920;12.238;2023-05-07T20:01:06;9.60;99.90
21001;DHT22;10658;50.920;12.238;2023-05-07T20:05:07;9.50;99.90
21001;DHT22;10658;50.920;12.238;2023-05-07T20:09:10;9.50;99.90
21001;DHT22;10658;50.920;12.238;2023-05-07T20:13:12;9.40;99.90
21001;DHT22;10658;50.920;12.238;2023-05-07T20:17:13;9.30;99.90
21001;DHT22;10658;50.920;12.238;2023-05-07T20:21:14;9.30;99.90
21001;DHT22;10658;50.920;12.238;2023-05-07T20:25:15;9.20;99.90
21001;DHT22;10658;50.920;12.238;2023-05-07T20:29:16;9.20;99.90
21001;DHT22;10658;50.920;12.238;2023-05-07T20:33:17;9.10;99.90
21001;DHT22;10658;50.920;12.238;2023-05-07T20:37:17;9.10;99.90
21001;DHT22;10658;50.920;12.238;2023-05-07T20:41:19;9.00;99.90
21001;DHT22;10658;50.920;12.238;2023-05-07T20:45:21;8.90;99.90
21001;DHT22;10658;50.920;12.238;2023-05-07T20:49:21;8.80;99.90
21001;DHT22;10658;50.920;12.238;2023-05-07T20:53:22;8.80;99.90
21001;DHT22;10658;50.920;12.238;2023-05-07T20:57:23;8.80;99.90
21001;DHT22;10658;50.920;12.238;2023-05-07T21:01:24;8.70;99.90
21001;DHT22;10658;50.920;12.238;2023-05-07T21:05:25;8.60;99.90
21001;DHT22;10658;50.920;12.238;2023-05-07T21:09:26;8.50;99.90
21001;DHT22;10658;50.920;12.238;2023-05-07T21:13:26;8.60;99.90
21001;DHT22;10658;50.920;12.238;2023-05-07T21:17:27;8.50;99.90
21001;DHT22;10658;50.920;12.238;2023-05-07T21:21:31;8.40;99.90
21001;DHT22;10658;50.920;12.238;2023-05-07T21:25:31;8.30;99.90
21001;DHT22;10658;50.920;12.238;2023-05-07T21:29:32;8.30;99.90
21001;DHT22;10658;50.920;12.238;2023-05-07T21:33:33;8.20;99.90
21001;DHT22;10658;50.920;12.238;2023-05-07T21:37:33;8.20;99.90
21001;DHT22;10658;50.920;12.238;2023-05-07T21:41:35;8.10;99.90
21001;DHT22;10658;50.920;12.238;2023-05-07T21:45:38;8.10;99.90
21001;DHT22;10658;50.920;12.238;2023-05-07T21:49:39;8.10;99.90
21001;DHT22;10658;50.920;12.238;2023-05-07T21:53:41;8.10;99.90
21001;DHT22;10658;50.920;12.238;2023-05-07T21:57:41;8.00;99.90
21001;DHT22;10658;50.920;12.238;2023-05-07T22:01:42;8.00;99.90
21001;DHT22;10658;50.920;12.238;2023-05-07T22:05:43;8.00;99.90
21001;DHT22;10658;50.920;12.238;2023-05-07T22:09:44;8.00;99.90
21001;DHT22;10658;50.920;12.238;2023-05-07T22:13:45;7.90;99.90
21001;DHT22;10658;50.920;12.238;2023-05-07T22:17:45;7.80;99.90
21001;DHT22;10658;50.920;12.238;2023-05-07T22:21:46;7.80;99.90
21001;DHT22;10658;50.920;12.238;2023-05-07T22:25:47;7.90;99.90
21001;DHT22;10658;50.920;12.238;2023-05-07T22:29:48;7.80;99.90
21001;DHT22;10658;50.920;12.238;2023-05-07T22:33:48;7.70;99.90
21001;DHT22;10658;50.920;12.238;2023-05-07T22:37:49;7.70;99.90
21001;DHT22;10658;50.920;12.238;2023-05-07T22:41:50;7.60;99.90
21001;DHT22;10658;50.920;12.238;2023-05-07T22:45:57;7.60;99.90
21001;DHT22;10658;50.920;12.238;2023-05-07T22:49:59;7.60;99.90
21001;DHT22;10658;50.920;12.238;2023-05-07T22:54:00;7.60;99.90
21001;DHT22;10658;50.920;12.238;2023-05-07T22:58:01;7.50;99.90
21001;DHT22;10658;50.920;12.238;2023-05-07T23:02:01;7.50;99.90
21001;DHT22;10658;50.920;12.238;2023-05-07T23:06:04;7.40;99.90
21001;DHT22;10658;50.920;12.238;2023-05-07T23:10:05;7.30;99.90
21001;DHT22;10658;50.920;12.238;2023-05-07T23:14:06;7.30;99.90
21001;DHT22;10658;50.920;12.238;2023-05-07T23:18:06;7.30;99.90
21001;DHT22;10658;50.920;12.238;2023-05-07T23:22:07;7.30;99.90
21001;DHT22;10658;50.920;12.238;2023-05-07T23:26:09;7.30;99.90
21001;DHT22;10658;50.920;12.238;2023-05-07T23:30:10;7.30;99.90
21001;DHT22;10658;50.920;12.238;2023-05-07T23:34:11;7.30;99.90
21001;DHT22;10658;50.920;12.238;2023-05-07T23:38:12;7.30;99.90
21001;DHT22;10658;50.920;12.238;2023-05-07T23:42:13;7.30;99.90
21001;DHT22;10658;50.920;12.238;2023-05-07T23:46:14;7.20;99.90
21001;DHT22;10658;50.920;12.238;2023-05-07T23:50:15;7.20;99.90
21001;DHT22;10658;50.920;12.238;2023-05-07T23:54:15;7.20;99.90
21001;DHT22;10658;50.920;12.238;2023-05-07T23:58:16;7.20;99.90
